sensor_id;sensor_type;location;lat;lon;timestamp;temperature;humidity
52016;DHT22;38032;53.326;6.472;2024-01-07T00:00:22;0.40;99.90
52016;DHT22;38032;53.326;6.472;2024-01-07T00:02:47;0.50;99.90
52016;DHT22;38032;53.326;6.472;2024-01-07T00:05:13;0.50;99.90
52016;DHT22;38032;53.326;6.472;2024-01-07T00:07:39;0.50;99.90
52016;DHT22;38032;53.326;6.472;2024-01-07T00:10:05;0.50;99.90
52016;DHT22;38032;53.326;6.472;2024-01-07T00:12:31;0.50;99.90
52016;DHT22;38032;53.326;6.472;2024-01-07T00:14:57;0.60;99.90
52016;DHT22;38032;53.326;6.472;2024-01-07T00:17:23;0.60;99.90
52016;DHT22;38032;53.326;6.472;2024-01-07T00:19:49;0.60;99.90
52016;DHT22;38032;53.326;6.472;2024-01-07T00:22:15;0.70;99.90
52016;DHT22;38032;53.326;6.472;2024-01-07T00:24:41;0.70;99.90
52016;DHT22;38032;53.326;6.472;2024-01-07T00:27:06;0.70;99.90
52016;DHT22;38032;53.326;6.472;2024-01-07T00:29:34;0.70;99.90
52016;DHT22;38032;53.326;6.472;2024-01-07T00:32:01;0.70;99.90
52016;DHT22;38032;53.326;6.472;2024-01-07T00:34:27;0.70;99.90
52016;DHT22;38032;53.326;6.472;2024-01-07T00:36:53;0.80;99.90
52016;DHT22;38032;53.326;6.472;2024-01-07T00:39:19;0.70;99.90
52016;DHT22;38032;53.326;6.472;2024-01-07T00:41:44;0.70;99.90
52016;DHT22;38032;53.326;6.472;2024-01-07T00:44:10;0.70;99.90
52016;DHT22;38032;53.326;6.472;2024-01-07T00:46:36;0.70;99.90
52016;DHT22;38032;53.326;6.472;2024-01-07T00:49:02;0.70;99.90
52016;DHT22;38032;53.326;6.472;2024-01-07T00:51:28;0.70;99.90
52016;DHT22;38032;53.326;6.472;2024-01-07T00:53:54;0.60;99.90
52016;DHT22;38032;53.326;6.472;2024-01-07T00:56:19;0.60;99.90
52016;DHT22;38032;53.326;6.472;2024-01-07T00:58:45;0.60;99.90
52016;DHT22;38032;53.326;6.472;2024-01-07T01:01:11;0.50;99.90
52016;DHT22;38032;53.326;6.472;2024-01-07T01:03:37;0.50;99.90
52016;DHT22;38032;53.326;6.472;2024-01-07T01:06:04;0.50;99.90
52016;DHT22;38032;53.326;6.472;2024-01-07T01:08:29;0.50;99.90
52016;DHT22;38032;53.326;6.472;2024-01-07T01:10:55;0.50;99.90
52016;DHT22;38032;53.326;6.472;2024-01-07T01:13:21;0.50;99.90
52016;DHT22;38032;53.326;6.472;2024-01-07T01:15:47;0.50;99.90
52016;DHT22;38032;53.326;6.472;2024-01-07T01:18:13;0.50;99.90
52016;DHT22;38032;53.326;6.472;2024-01-07T01:20:38;0.50;99.90
52016;DHT22;38032;53.326;6.472;2024-01-07T01:23:04;0.50;99.90
52016;DHT22;38032;53.326;6.472;2024-01-07T01:25:30;0.50;99.90
52016;DHT22;38032;53.326;6.472;2024-01-07T01:27:56;0.50;99.90
52016;DHT22;38032;53.326;6.472;2024-01-07T01:30:22;0.50;99.90
52016;DHT22;38032;53.326;6.472;2024-01-07T01:32:48;0.50;99.90
52016;DHT22;38032;53.326;6.472;2024-01-07T01:35:14;0.50;99.90
52016;DHT22;38032;53.326;6.472;2024-01-07T01:37:39;0.40;99.90
52016;DHT22;38032;53.326;6.472;2024-01-07T01:40:06;0.40;99.90
52016;DHT22;38032;53.326;6.472;2024-01-07T01:42:32;0.40;99.90
52016;DHT22;38032;53.326;6.472;2024-01-07T01:44:57;0.30;99.90
52016;DHT22;38032;53.326;6.472;2024-01-07T01:47:28;0.30;99.90
52016;DHT22;38032;53.326;6.472;2024-01-07T01:49:54;0.20;99.90
52016;DHT22;38032;53.326;6.472;2024-01-07T01:52:21;0.30;99.90
52016;DHT22;38032;53.326;6.472;2024-01-07T01:54:47;0.30;99.90
52016;DHT22;38032;53.326;6.472;2024-01-07T01:57:16;0.30;99.90
52016;DHT22;38032;53.326;6.472;2024-01-07T01:59:45;0.30;99.90
52016;DHT22;38032;53.326;6.472;2024-01-07T02:02:11;0.30;99.90
52016;DHT22;38032;53.326;6.472;2024-01-07T02:04:37;0.30;99.90
52016;DHT22;38032;53.326;6.472;2024-01-07T02:07:03;0.30;99.90
52016;DHT22;38032;53.326;6.472;2024-01-07T02:09:29;0.40;99.90
52016;DHT22;38032;53.326;6.472;2024-01-07T02:12:02;0.40;99.90
52016;DHT22;38032;53.326;6.472;2024-01-07T02:14:28;0.40;99.90
52016;DHT22;38032;53.326;6.472;2024-01-07T02:16:54;0.40;99.90
52016;DHT22;38032;53.326;6.472;2024-01-07T02:19:20;0.40;99.90
52016;DHT22;38032;53.326;6.472;2024-01-07T02:21:47;0.40;99.90
52016;DHT22;38032;53.326;6.472;2024-01-07T02:24:16;0.40;99.90
52016;DHT22;38032;53.326;6.472;2024-01-07T02:26:42;0.50;99.90
52016;DHT22;38032;53.326;6.472;2024-01-07T02:29:08;0.50;99.90
52016;DHT22;38032;53.326;6.472;2024-01-07T02:31:34;0.50;99.90
52016;DHT22;38032;53.326;6.472;2024-01-07T02:33:59;0.50;99.90
52016;DHT22;38032;53.326;6.472;2024-01-07T02:36:25;0.50;99.90
52016;DHT22;38032;53.326;6.472;2024-01-07T02:38:51;0.50;99.90
52016;DHT22;38032;53.326;6.472;2024-01-07T02:41:17;0.50;99.90
52016;DHT22;38032;53.326;6.472;2024-01-07T02:43:43;0.50;99.90
52016;DHT22;38032;53.326;6.472;2024-01-07T02:46:09;0.50;99.90
52016;DHT22;38032;53.326;6.472;2024-01-07T02:48:34;0.50;99.90
52016;DHT22;38032;53.326;6.472;2024-01-07T02:51:00;0.50;99.90
52016;DHT22;38032;53.326;6.472;2024-01-07T02:53:28;0.50;99.90
52016;DHT22;38032;53.326;6.472;2024-01-07T02:55:54;0.50;99.90
52016;DHT22;38032;53.326;6.472;2024-01-07T02:58:20;0.50;99.90
52016;DHT22;38032;53.326;6.472;2024-01-07T03:00:46;0.50;99.90
52016;DHT22;38032;53.326;6.472;2024-01-07T03:03:12;0.50;99.90
52016;DHT22;38032;53.326;6.472;2024-01-07T03:05:38;0.50;99.90
52016;DHT22;38032;53.326;6.472;2024-01-07T03:08:04;0.50;99.90
52016;DHT22;38032;53.326;6.472;2024-01-07T03:10:29;0.50;99.90
52016;DHT22;38032;53.326;6.472;2024-01-07T03:12:56;0.50;99.90
52016;DHT22;38032;53.326;6.472;2024-01-07T03:15:22;0.50;99.90
52016;DHT22;38032;53.326;6.472;2024-01-07T03:17:48;0.50;99.90
52016;DHT22;38032;53.326;6.472;2024-01-07T03:20:14;0.50;99.90
52016;DHT22;38032;53.326;6.472;2024-01-07T03:22:40;0.50;99.90
52016;DHT22;38032;53.326;6.472;2024-01-07T03:25:06;0.50;99.90
52016;DHT22;38032;53.326;6.472;2024-01-07T03:27:32;0.50;99.90
52016;DHT22;38032;53.326;6.472;2024-01-07T03:29:58;0.50;99.90
52016;DHT22;38032;53.326;6.472;2024-01-07T03:32:24;0.50;99.90
52016;DHT22;38032;53.326;6.472;2024-01-07T03:34:50;0.60;99.90
52016;DHT22;38032;53.326;6.472;2024-01-07T03:37:15;0.60;99.90
52016;DHT22;38032;53.326;6.472;2024-01-07T03:39:43;0.60;99.90
52016;DHT22;38032;53.326;6.472;2024-01-07T03:42:09;0.60;99.90
52016;DHT22;38032;53.326;6.472;2024-01-07T03:44:38;0.60;99.90
52016;DHT22;38032;53.326;6.472;2024-01-07T03:47:05;0.60;99.90
52016;DHT22;38032;53.326;6.472;2024-01-07T03:49:31;0.60;99.90
52016;DHT22;38032;53.326;6.472;2024-01-07T03:51:56;0.50;99.90
52016;DHT22;38032;53.326;6.472;2024-01-07T03:54:22;0.50;99.90
52016;DHT22;38032;53.326;6.472;2024-01-07T03:56:48;0.50;99.90
52016;DHT22;38032;53.326;6.472;2024-01-07T03:59:14;0.50;99.90
52016;DHT22;38032;53.326;6.472;2024-01-07T04:01:40;0.50;99.90
52016;DHT22;38032;53.326;6.472;2024-01-07T04:04:05;0.50;99.90
52016;DHT22;38032;53.326;6.472;2024-01-07T04:06:32;0.50;99.90
52016;DHT22;38032;53.326;6.472;2024-01-07T04:08:57;0.50;99.90
52016;DHT22;38032;53.326;6.472;2024-01-07T04:11:23;0.40;99.90
52016;DHT22;38032;53.326;6.472;2024-01-07T04:13:49;0.40;99.90
52016;DHT22;38032;53.326;6.472;2024-01-07T04:16:17;0.40;99.90
52016;DHT22;38032;53.326;6.472;2024-01-07T04:18:43;0.40;99.90
52016;DHT22;38032;53.326;6.472;2024-01-07T04:21:10;0.40;99.90
52016;DHT22;38032;53.326;6.472;2024-01-07T04:23:35;0.40;99.90
52016;DHT22;38032;53.326;6.472;2024-01-07T04:26:01;0.40;99.90
52016;DHT22;38032;53.326;6.472;2024-01-07T04:28:27;0.40;99.90
52016;DHT22;38032;53.326;6.472;2024-01-07T04:30:53;0.40;99.90
52016;DHT22;38032;53.326;6.472;2024-01-07T04:33:18;0.40;99.90
52016;DHT22;38032;53.326;6.472;2024-01-07T04:35:44;0.40;99.90
52016;DHT22;38032;53.326;6.472;2024-01-07T04:38:10;0.40;99.90
52016;DHT22;38032;53.326;6.472;2024-01-07T04:40:36;0.50;99.90
52016;DHT22;38032;53.326;6.472;2024-01-07T04:43:02;0.50;99.90
52016;DHT22;38032;53.326;6.472;2024-01-07T04:45:27;0.50;99.90
52016;DHT22;38032;53.326;6.472;2024-01-07T04:47:53;0.50;99.90
52016;DHT22;38032;53.326;6.472;2024-01-07T04:50:19;0.50;99.90
52016;DHT22;38032;53.326;6.472;2024-01-07T04:52:46;0.50;99.90
52016;DHT22;38032;53.326;6.472;2024-01-07T04:55:12;0.50;99.90
52016;DHT22;38032;53.326;6.472;2024-01-07T04:57:38;0.50;99.90
52016;DHT22;38032;53.326;6.472;2024-01-07T05:00:05;0.50;99.90
52016;DHT22;38032;53.326;6.472;2024-01-07T05:02:31;0.50;99.90
52016;DHT22;38032;53.326;6.472;2024-01-07T05:04:57;0.50;99.90
52016;DHT22;38032;53.326;6.472;2024-01-07T05:07:23;0.50;99.90
52016;DHT22;38032;53.326;6.472;2024-01-07T05:09:49;0.60;99.90
52016;DHT22;38032;53.326;6.472;2024-01-07T05:12:15;0.60;99.90
52016;DHT22;38032;53.326;6.472;2024-01-07T05:14:41;0.60;99.90
52016;DHT22;38032;53.326;6.472;2024-01-07T05:17:09;0.60;99.90
52016;DHT22;38032;53.326;6.472;2024-01-07T05:19:35;0.60;99.90
52016;DHT22;38032;53.326;6.472;2024-01-07T05:22:01;0.60;99.90
52016;DHT22;38032;53.326;6.472;2024-01-07T05:24:27;0.60;99.90
52016;DHT22;38032;53.326;6.472;2024-01-07T05:26:53;0.60;99.90
52016;DHT22;38032;53.326;6.472;2024-01-07T05:29:19;0.60;99.90
52016;DHT22;38032;53.326;6.472;2024-01-07T05:31:44;0.60;99.90
52016;DHT22;38032;53.326;6.472;2024-01-07T05:34:10;0.60;99.90
52016;DHT22;38032;53.326;6.472;2024-01-07T05:36:36;0.60;99.90
52016;DHT22;38032;53.326;6.472;2024-01-07T05:39:03;0.60;99.90
52016;DHT22;38032;53.326;6.472;2024-01-07T05:41:29;0.60;99.90
52016;DHT22;38032;53.326;6.472;2024-01-07T05:43:55;0.60;99.90
52016;DHT22;38032;53.326;6.472;2024-01-07T05:46:21;0.60;99.90
52016;DHT22;38032;53.326;6.472;2024-01-07T05:48:48;0.60;99.90
52016;DHT22;38032;53.326;6.472;2024-01-07T05:51:15;0.60;99.90
52016;DHT22;38032;53.326;6.472;2024-01-07T05:53:41;0.60;99.90
52016;DHT22;38032;53.326;6.472;2024-01-07T05:56:08;0.60;99.90
52016;DHT22;38032;53.326;6.472;2024-01-07T05:58:34;0.60;99.90
52016;DHT22;38032;53.326;6.472;2024-01-07T06:01:00;0.60;99.90
52016;DHT22;38032;53.326;6.472;2024-01-07T06:03:26;0.60;99.90
52016;DHT22;38032;53.326;6.472;2024-01-07T06:05:52;0.60;99.90
52016;DHT22;38032;53.326;6.472;2024-01-07T06:08:18;0.60;99.90
52016;DHT22;38032;53.326;6.472;2024-01-07T06:10:44;0.60;99.90
52016;DHT22;38032;53.326;6.472;2024-01-07T06:13:10;0.60;99.90
52016;DHT22;38032;53.326;6.472;2024-01-07T06:15:36;0.60;99.90
52016;DHT22;38032;53.326;6.472;2024-01-07T06:18:02;0.60;99.90
52016;DHT22;38032;53.326;6.472;2024-01-07T06:20:27;0.60;99.90
52016;DHT22;38032;53.326;6.472;2024-01-07T06:22:53;0.60;99.90
52016;DHT22;38032;53.326;6.472;2024-01-07T06:25:19;0.60;99.90
52016;DHT22;38032;53.326;6.472;2024-01-07T06:27:46;0.60;99.90
52016;DHT22;38032;53.326;6.472;2024-01-07T06:30:12;0.60;99.90
52016;DHT22;38032;53.326;6.472;2024-01-07T06:32:39;0.60;99.90
52016;DHT22;38032;53.326;6.472;2024-01-07T06:35:05;0.60;99.90
52016;DHT22;38032;53.326;6.472;2024-01-07T06:37:31;0.60;99.90
52016;DHT22;38032;53.326;6.472;2024-01-07T06:39:57;0.60;99.90
52016;DHT22;38032;53.326;6.472;2024-01-07T06:42:24;0.50;99.90
52016;DHT22;38032;53.326;6.472;2024-01-07T06:44:50;0.50;99.90
52016;DHT22;38032;53.326;6.472;2024-01-07T06:47:16;0.50;99.90
52016;DHT22;38032;53.326;6.472;2024-01-07T06:49:42;0.50;99.90
52016;DHT22;38032;53.326;6.472;2024-01-07T06:52:07;0.50;99.90
52016;DHT22;38032;53.326;6.472;2024-01-07T06:54:33;0.50;99.90
52016;DHT22;38032;53.326;6.472;2024-01-07T06:56:59;0.50;99.90
52016;DHT22;38032;53.326;6.472;2024-01-07T06:59:25;0.40;99.90
52016;DHT22;38032;53.326;6.472;2024-01-07T07:01:51;0.40;99.90
52016;DHT22;38032;53.326;6.472;2024-01-07T07:04:17;0.30;99.90
52016;DHT22;38032;53.326;6.472;2024-01-07T07:06:43;0.30;99.90
52016;DHT22;38032;53.326;6.472;2024-01-07T07:09:09;0.30;99.90
52016;DHT22;38032;53.326;6.472;2024-01-07T07:11:38;0.20;99.90
52016;DHT22;38032;53.326;6.472;2024-01-07T07:14:03;0.20;99.90
52016;DHT22;38032;53.326;6.472;2024-01-07T07:16:29;0.20;99.90
52016;DHT22;38032;53.326;6.472;2024-01-07T07:18:55;0.20;99.90
52016;DHT22;38032;53.326;6.472;2024-01-07T07:21:21;0.20;99.90
52016;DHT22;38032;53.326;6.472;2024-01-07T07:23:47;0.20;99.90
52016;DHT22;38032;53.326;6.472;2024-01-07T07:26:13;0.20;99.90
52016;DHT22;38032;53.326;6.472;2024-01-07T07:28:38;0.30;99.90
52016;DHT22;38032;53.326;6.472;2024-01-07T07:31:04;0.30;99.90
52016;DHT22;38032;53.326;6.472;2024-01-07T07:33:30;0.30;99.90
52016;DHT22;38032;53.326;6.472;2024-01-07T07:35:56;0.30;99.90
52016;DHT22;38032;53.326;6.472;2024-01-07T07:38:23;0.30;99.90
52016;DHT22;38032;53.326;6.472;2024-01-07T07:40:49;0.40;99.90
52016;DHT22;38032;53.326;6.472;2024-01-07T07:43:19;0.40;99.90
52016;DHT22;38032;53.326;6.472;2024-01-07T07:45:46;0.40;99.90
52016;DHT22;38032;53.326;6.472;2024-01-07T07:48:12;0.50;99.90
52016;DHT22;38032;53.326;6.472;2024-01-07T07:50:38;0.50;99.90
52016;DHT22;38032;53.326;6.472;2024-01-07T07:53:04;0.50;99.90
52016;DHT22;38032;53.326;6.472;2024-01-07T07:55:30;0.50;99.90
52016;DHT22;38032;53.326;6.472;2024-01-07T07:57:55;0.60;99.90
52016;DHT22;38032;53.326;6.472;2024-01-07T08:00:21;0.60;99.90
52016;DHT22;38032;53.326;6.472;2024-01-07T08:02:47;0.60;99.90
52016;DHT22;38032;53.326;6.472;2024-01-07T08:05:13;0.60;99.90
52016;DHT22;38032;53.326;6.472;2024-01-07T08:07:39;0.60;99.90
52016;DHT22;38032;53.326;6.472;2024-01-07T08:10:06;0.70;99.90
52016;DHT22;38032;53.326;6.472;2024-01-07T08:12:32;0.70;99.90
52016;DHT22;38032;53.326;6.472;2024-01-07T08:14:58;0.70;99.90
52016;DHT22;38032;53.326;6.472;2024-01-07T08:17:23;0.70;99.90
52016;DHT22;38032;53.326;6.472;2024-01-07T08:19:49;0.70;99.90
52016;DHT22;38032;53.326;6.472;2024-01-07T08:22:16;0.80;99.90
52016;DHT22;38032;53.326;6.472;2024-01-07T08:24:41;0.70;99.90
52016;DHT22;38032;53.326;6.472;2024-01-07T08:27:08;0.70;99.90
52016;DHT22;38032;53.326;6.472;2024-01-07T08:29:34;0.80;99.90
52016;DHT22;38032;53.326;6.472;2024-01-07T08:32:01;0.80;99.90
52016;DHT22;38032;53.326;6.472;2024-01-07T08:34:27;0.80;99.90
52016;DHT22;38032;53.326;6.472;2024-01-07T08:36:52;0.80;99.90
52016;DHT22;38032;53.326;6.472;2024-01-07T08:39:20;0.80;99.90
52016;DHT22;38032;53.326;6.472;2024-01-07T08:41:46;0.90;99.90
52016;DHT22;38032;53.326;6.472;2024-01-07T08:44:11;0.80;99.90
52016;DHT22;38032;53.326;6.472;2024-01-07T08:46:37;0.90;99.90
52016;DHT22;38032;53.326;6.472;2024-01-07T08:49:03;0.90;99.90
52016;DHT22;38032;53.326;6.472;2024-01-07T08:51:29;0.90;99.90
52016;DHT22;38032;53.326;6.472;2024-01-07T08:56:23;1.00;99.90
52016;DHT22;38032;53.326;6.472;2024-01-07T08:58:49;1.00;99.90
52016;DHT22;38032;53.326;6.472;2024-01-07T09:01:14;1.10;99.90
52016;DHT22;38032;53.326;6.472;2024-01-07T09:03:40;1.10;99.90
52016;DHT22;38032;53.326;6.472;2024-01-07T09:06:07;1.10;99.90
52016;DHT22;38032;53.326;6.472;2024-01-07T09:08:34;1.10;99.90
52016;DHT22;38032;53.326;6.472;2024-01-07T09:11:03;1.10;99.90
52016;DHT22;38032;53.326;6.472;2024-01-07T09:13:29;1.10;99.90
52016;DHT22;38032;53.326;6.472;2024-01-07T09:15:55;1.10;99.90
52016;DHT22;38032;53.326;6.472;2024-01-07T09:18:21;1.20;99.90
52016;DHT22;38032;53.326;6.472;2024-01-07T09:20:47;1.20;99.90
52016;DHT22;38032;53.326;6.472;2024-01-07T09:23:12;1.20;99.90
52016;DHT22;38032;53.326;6.472;2024-01-07T09:25:38;1.20;99.90
52016;DHT22;38032;53.326;6.472;2024-01-07T09:28:04;1.30;99.90
52016;DHT22;38032;53.326;6.472;2024-01-07T09:30:30;1.30;99.90
52016;DHT22;38032;53.326;6.472;2024-01-07T09:32:56;1.30;99.90
52016;DHT22;38032;53.326;6.472;2024-01-07T09:35:22;1.30;99.90
52016;DHT22;38032;53.326;6.472;2024-01-07T09:37:48;1.40;99.90
52016;DHT22;38032;53.326;6.472;2024-01-07T09:40:17;1.40;99.90
52016;DHT22;38032;53.326;6.472;2024-01-07T09:42:46;1.50;99.90
52016;DHT22;38032;53.326;6.472;2024-01-07T09:45:14;1.50;99.90
52016;DHT22;38032;53.326;6.472;2024-01-07T09:47:40;1.60;99.90
52016;DHT22;38032;53.326;6.472;2024-01-07T09:50:10;1.70;99.90
52016;DHT22;38032;53.326;6.472;2024-01-07T09:52:38;1.80;99.90
52016;DHT22;38032;53.326;6.472;2024-01-07T09:55:05;1.90;99.90
52016;DHT22;38032;53.326;6.472;2024-01-07T09:57:32;2.00;99.90
52016;DHT22;38032;53.326;6.472;2024-01-07T10:00:00;2.00;99.90
52016;DHT22;38032;53.326;6.472;2024-01-07T10:02:26;2.00;99.90
52016;DHT22;38032;53.326;6.472;2024-01-07T10:04:52;2.10;99.90
52016;DHT22;38032;53.326;6.472;2024-01-07T10:07:17;2.20;99.90
52016;DHT22;38032;53.326;6.472;2024-01-07T10:09:43;2.20;99.90
52016;DHT22;38032;53.326;6.472;2024-01-07T10:12:09;2.30;99.90
52016;DHT22;38032;53.326;6.472;2024-01-07T10:14:36;2.30;99.90
52016;DHT22;38032;53.326;6.472;2024-01-07T10:17:02;2.40;99.90
52016;DHT22;38032;53.326;6.472;2024-01-07T10:19:28;2.60;99.90
52016;DHT22;38032;53.326;6.472;2024-01-07T10:22:00;2.70;99.90
52016;DHT22;38032;53.326;6.472;2024-01-07T10:24:29;2.80;99.90
52016;DHT22;38032;53.326;6.472;2024-01-07T10:26:56;3.00;99.90
52016;DHT22;38032;53.326;6.472;2024-01-07T10:29:22;3.10;99.90
52016;DHT22;38032;53.326;6.472;2024-01-07T10:31:48;3.20;99.90
52016;DHT22;38032;53.326;6.472;2024-01-07T10:34:15;3.30;99.90
52016;DHT22;38032;53.326;6.472;2024-01-07T10:36:41;3.40;99.90
52016;DHT22;38032;53.326;6.472;2024-01-07T10:39:08;3.40;99.90
52016;DHT22;38032;53.326;6.472;2024-01-07T10:41:36;3.40;99.90
52016;DHT22;38032;53.326;6.472;2024-01-07T10:44:02;3.60;99.90
52016;DHT22;38032;53.326;6.472;2024-01-07T10:46:29;3.70;99.90
52016;DHT22;38032;53.326;6.472;2024-01-07T10:49:00;3.90;99.90
52016;DHT22;38032;53.326;6.472;2024-01-07T10:51:28;4.10;99.90
52016;DHT22;38032;53.326;6.472;2024-01-07T10:53:56;4.20;99.90
52016;DHT22;38032;53.326;6.472;2024-01-07T10:56:24;4.20;99.90
52016;DHT22;38032;53.326;6.472;2024-01-07T10:58:52;4.10;99.90
52016;DHT22;38032;53.326;6.472;2024-01-07T11:01:19;3.90;99.90
52016;DHT22;38032;53.326;6.472;2024-01-07T11:03:53;3.70;99.90
52016;DHT22;38032;53.326;6.472;2024-01-07T11:06:27;3.50;99.90
52016;DHT22;38032;53.326;6.472;2024-01-07T11:09:03;3.30;99.90
52016;DHT22;38032;53.326;6.472;2024-01-07T11:11:38;3.20;99.90
52016;DHT22;38032;53.326;6.472;2024-01-07T11:14:38;3.20;99.90
52016;DHT22;38032;53.326;6.472;2024-01-07T11:17:06;3.10;99.90
52016;DHT22;38032;53.326;6.472;2024-01-07T11:19:33;3.00;99.90
52016;DHT22;38032;53.326;6.472;2024-01-07T11:22:22;3.00;99.90
52016;DHT22;38032;53.326;6.472;2024-01-07T11:24:51;3.10;99.90
52016;DHT22;38032;53.326;6.472;2024-01-07T11:27:17;3.20;99.90
52016;DHT22;38032;53.326;6.472;2024-01-07T11:29:43;3.20;99.90
52016;DHT22;38032;53.326;6.472;2024-01-07T11:32:12;3.20;99.90
52016;DHT22;38032;53.326;6.472;2024-01-07T11:37:10;3.20;99.90
52016;DHT22;38032;53.326;6.472;2024-01-07T11:39:37;3.20;99.90
52016;DHT22;38032;53.326;6.472;2024-01-07T11:42:04;3.20;99.90
52016;DHT22;38032;53.326;6.472;2024-01-07T11:44:32;3.10;99.90
52016;DHT22;38032;53.326;6.472;2024-01-07T11:46:58;3.20;99.90
52016;DHT22;38032;53.326;6.472;2024-01-07T11:49:24;3.10;99.90
52016;DHT22;38032;53.326;6.472;2024-01-07T11:51:50;3.00;99.90
52016;DHT22;38032;53.326;6.472;2024-01-07T11:54:17;3.00;99.90
52016;DHT22;38032;53.326;6.472;2024-01-07T11:56:44;2.90;99.90
52016;DHT22;38032;53.326;6.472;2024-01-07T11:59:10;2.90;99.90
52016;DHT22;38032;53.326;6.472;2024-01-07T12:01:35;2.90;99.90
52016;DHT22;38032;53.326;6.472;2024-01-07T12:04:01;2.90;99.90
52016;DHT22;38032;53.326;6.472;2024-01-07T12:06:27;2.80;99.90
52016;DHT22;38032;53.326;6.472;2024-01-07T12:08:53;2.80;99.90
52016;DHT22;38032;53.326;6.472;2024-01-07T12:11:19;2.90;99.90
52016;DHT22;38032;53.326;6.472;2024-01-07T12:13:46;2.90;99.90
52016;DHT22;38032;53.326;6.472;2024-01-07T12:16:12;2.90;99.90
52016;DHT22;38032;53.326;6.472;2024-01-07T12:18:39;2.90;99.90
52016;DHT22;38032;53.326;6.472;2024-01-07T12:21:05;2.90;99.90
52016;DHT22;38032;53.326;6.472;2024-01-07T12:23:36;2.80;99.90
52016;DHT22;38032;53.326;6.472;2024-01-07T12:26:10;2.80;99.90
52016;DHT22;38032;53.326;6.472;2024-01-07T12:28:37;2.70;99.90
52016;DHT22;38032;53.326;6.472;2024-01-07T12:31:04;2.70;99.90
52016;DHT22;38032;53.326;6.472;2024-01-07T12:33:30;2.60;99.90
52016;DHT22;38032;53.326;6.472;2024-01-07T12:35:57;2.60;99.90
52016;DHT22;38032;53.326;6.472;2024-01-07T12:38:25;2.50;99.90
52016;DHT22;38032;53.326;6.472;2024-01-07T12:40:52;2.50;99.90
52016;DHT22;38032;53.326;6.472;2024-01-07T12:43:18;2.40;99.90
52016;DHT22;38032;53.326;6.472;2024-01-07T12:45:44;2.40;99.90
52016;DHT22;38032;53.326;6.472;2024-01-07T12:48:12;2.40;99.90
52016;DHT22;38032;53.326;6.472;2024-01-07T12:50:38;2.30;99.90
52016;DHT22;38032;53.326;6.472;2024-01-07T12:53:03;2.30;99.90
52016;DHT22;38032;53.326;6.472;2024-01-07T12:55:30;2.20;99.90
52016;DHT22;38032;53.326;6.472;2024-01-07T12:57:56;2.20;99.90
52016;DHT22;38032;53.326;6.472;2024-01-07T13:00:25;2.10;99.90
52016;DHT22;38032;53.326;6.472;2024-01-07T13:02:52;2.10;99.90
52016;DHT22;38032;53.326;6.472;2024-01-07T13:05:18;2.00;99.90
52016;DHT22;38032;53.326;6.472;2024-01-07T13:07:44;2.10;99.90
52016;DHT22;38032;53.326;6.472;2024-01-07T13:10:10;2.00;99.90
52016;DHT22;38032;53.326;6.472;2024-01-07T13:12:36;2.10;99.90
52016;DHT22;38032;53.326;6.472;2024-01-07T13:15:03;2.10;99.90
52016;DHT22;38032;53.326;6.472;2024-01-07T13:17:29;2.10;99.90
52016;DHT22;38032;53.326;6.472;2024-01-07T13:19:58;2.10;99.90
52016;DHT22;38032;53.326;6.472;2024-01-07T13:22:25;2.10;99.90
52016;DHT22;38032;53.326;6.472;2024-01-07T13:24:51;2.00;99.90
52016;DHT22;38032;53.326;6.472;2024-01-07T13:27:17;2.10;99.90
52016;DHT22;38032;53.326;6.472;2024-01-07T13:29:44;2.00;99.90
52016;DHT22;38032;53.326;6.472;2024-01-07T13:32:13;2.00;99.90
52016;DHT22;38032;53.326;6.472;2024-01-07T13:34:45;2.00;99.90
52016;DHT22;38032;53.326;6.472;2024-01-07T13:37:11;2.10;99.90
52016;DHT22;38032;53.326;6.472;2024-01-07T13:39:37;2.00;99.90
52016;DHT22;38032;53.326;6.472;2024-01-07T13:42:04;2.10;99.90
52016;DHT22;38032;53.326;6.472;2024-01-07T13:44:30;2.10;99.90
52016;DHT22;38032;53.326;6.472;2024-01-07T13:46:56;2.10;99.90
52016;DHT22;38032;53.326;6.472;2024-01-07T13:49:22;2.10;99.90
52016;DHT22;38032;53.326;6.472;2024-01-07T13:51:48;2.10;99.90
52016;DHT22;38032;53.326;6.472;2024-01-07T13:54:13;2.10;99.90
52016;DHT22;38032;53.326;6.472;2024-01-07T13:56:40;2.10;99.90
52016;DHT22;38032;53.326;6.472;2024-01-07T13:59:09;2.10;99.90
52016;DHT22;38032;53.326;6.472;2024-01-07T14:01:35;2.00;99.90
52016;DHT22;38032;53.326;6.472;2024-01-07T14:04:01;2.00;99.90
52016;DHT22;38032;53.326;6.472;2024-01-07T14:06:27;2.00;99.90
52016;DHT22;38032;53.326;6.472;2024-01-07T14:08:53;1.90;99.90
52016;DHT22;38032;53.326;6.472;2024-01-07T14:11:20;1.90;99.90
52016;DHT22;38032;53.326;6.472;2024-01-07T14:13:46;1.90;99.90
52016;DHT22;38032;53.326;6.472;2024-01-07T14:16:13;1.90;99.90
52016;DHT22;38032;53.326;6.472;2024-01-07T14:18:39;1.80;99.90
52016;DHT22;38032;53.326;6.472;2024-01-07T14:21:05;1.80;99.90
52016;DHT22;38032;53.326;6.472;2024-01-07T14:23:31;1.80;99.90
52016;DHT22;38032;53.326;6.472;2024-01-07T14:25:59;1.80;99.90
52016;DHT22;38032;53.326;6.472;2024-01-07T14:28:25;1.80;99.90
52016;DHT22;38032;53.326;6.472;2024-01-07T14:30:51;1.80;99.90
52016;DHT22;38032;53.326;6.472;2024-01-07T14:33:17;1.80;99.90
52016;DHT22;38032;53.326;6.472;2024-01-07T14:35:43;1.80;99.90
52016;DHT22;38032;53.326;6.472;2024-01-07T14:38:09;1.70;99.90
52016;DHT22;38032;53.326;6.472;2024-01-07T14:40:36;1.70;99.90
52016;DHT22;38032;53.326;6.472;2024-01-07T14:43:02;1.70;99.90
52016;DHT22;38032;53.326;6.472;2024-01-07T14:45:28;1.60;99.90
52016;DHT22;38032;53.326;6.472;2024-01-07T14:47:54;1.60;99.90
52016;DHT22;38032;53.326;6.472;2024-01-07T14:50:20;1.50;99.90
52016;DHT22;38032;53.326;6.472;2024-01-07T14:52:47;1.60;99.90
52016;DHT22;38032;53.326;6.472;2024-01-07T14:55:13;1.50;99.90
52016;DHT22;38032;53.326;6.472;2024-01-07T14:57:40;1.50;99.90
52016;DHT22;38032;53.326;6.472;2024-01-07T15:00:07;1.50;99.90
52016;DHT22;38032;53.326;6.472;2024-01-07T15:02:34;1.50;99.90
52016;DHT22;38032;53.326;6.472;2024-01-07T15:05:00;1.40;99.90
52016;DHT22;38032;53.326;6.472;2024-01-07T15:07:26;1.40;99.90
52016;DHT22;38032;53.326;6.472;2024-01-07T15:09:52;1.40;99.90
52016;DHT22;38032;53.326;6.472;2024-01-07T15:12:18;1.30;99.90
52016;DHT22;38032;53.326;6.472;2024-01-07T15:14:45;1.30;99.90
52016;DHT22;38032;53.326;6.472;2024-01-07T15:17:10;1.30;99.90
52016;DHT22;38032;53.326;6.472;2024-01-07T15:19:36;1.20;99.90
52016;DHT22;38032;53.326;6.472;2024-01-07T15:22:02;1.20;99.90
52016;DHT22;38032;53.326;6.472;2024-01-07T15:24:29;1.00;99.90
52016;DHT22;38032;53.326;6.472;2024-01-07T15:26:55;0.90;99.90
52016;DHT22;38032;53.326;6.472;2024-01-07T15:29:21;0.80;99.90
52016;DHT22;38032;53.326;6.472;2024-01-07T15:31:47;0.70;99.90
52016;DHT22;38032;53.326;6.472;2024-01-07T15:34:12;0.60;99.90
52016;DHT22;38032;53.326;6.472;2024-01-07T15:36:38;0.60;99.90
52016;DHT22;38032;53.326;6.472;2024-01-07T15:39:05;0.50;99.90
52016;DHT22;38032;53.326;6.472;2024-01-07T15:41:31;0.40;99.90
52016;DHT22;38032;53.326;6.472;2024-01-07T15:43:58;0.40;99.90